createdAt,value
2022-08-25T00:00:02.728Z,937.29
2022-08-25T00:01:02.739Z,937.31
2022-08-25T00:02:03.519Z,937.33
2022-08-25T00:03:02.681Z,937.33
2022-08-25T00:04:02.666Z,937.47
2022-08-25T00:05:02.687Z,937.33
2022-08-25T00:06:02.634Z,937.37
2022-08-25T00:07:03.439Z,937.34
2022-08-25T00:08:02.922Z,937.38
2022-08-25T00:09:02.609Z,937.38
2022-08-25T00:10:02.608Z,937.41
2022-08-25T00:11:03.414Z,937.37
2022-08-25T00:12:02.611Z,937.41
2022-08-25T00:13:02.571Z,937.40
2022-08-25T00:14:02.604Z,937.38
2022-08-25T00:15:02.573Z,937.38
2022-08-25T00:16:02.597Z,937.37
2022-08-25T00:17:02.557Z,937.35
2022-08-25T00:18:03.636Z,937.33
2022-08-25T00:19:02.474Z,937.34
2022-08-25T00:20:02.541Z,937.29
2022-08-25T00:21:02.478Z,937.29
2022-08-25T00:22:02.488Z,937.31
2022-08-25T00:23:02.447Z,937.38
2022-08-25T00:24:02.493Z,937.40
2022-08-25T00:25:02.416Z,937.39
2022-08-25T00:26:02.422Z,937.40
2022-08-25T00:27:02.406Z,937.46
2022-08-25T00:28:07.825Z,937.44
2022-08-25T00:29:02.368Z,937.46
2022-08-25T00:30:02.352Z,937.46
2022-08-25T00:31:02.437Z,937.45
2022-08-25T00:32:02.388Z,937.44
2022-08-25T00:33:02.366Z,937.48
2022-08-25T00:34:02.361Z,937.49
2022-08-25T00:35:02.306Z,937.51
2022-08-25T00:36:02.308Z,937.51
2022-08-25T00:37:02.262Z,937.48
2022-08-25T00:38:02.428Z,937.50
2022-08-25T00:39:02.288Z,937.50
2022-08-25T00:40:02.327Z,937.46
2022-08-25T00:41:02.219Z,937.46
2022-08-25T00:42:02.221Z,937.45
2022-08-25T00:43:02.266Z,937.44
2022-08-25T00:44:02.269Z,937.44
2022-08-25T00:45:02.382Z,937.44
2022-08-25T00:46:02.376Z,937.49
2022-08-25T00:47:02.194Z,937.49
2022-08-25T01:42:18.553Z,937.52
2022-08-25T01:43:19.304Z,937.54
2022-08-25T01:44:19.289Z,937.54
2022-08-25T01:45:19.384Z,937.53
2022-08-25T01:46:19.449Z,937.51
2022-08-25T01:47:19.333Z,937.52
2022-08-25T01:48:19.875Z,937.53
2022-08-25T01:49:19.251Z,937.52
2022-08-25T01:50:19.235Z,937.51
2022-08-25T01:51:19.194Z,937.55
2022-08-25T01:52:19.215Z,937.54
2022-08-25T01:53:19.217Z,937.54
2022-08-25T01:54:19.150Z,937.55
2022-08-25T01:55:19.177Z,937.58
2022-08-25T01:56:19.171Z,937.52
2022-08-25T01:57:19.135Z,937.46
2022-08-25T01:58:19.157Z,937.46
2022-08-25T01:59:24.333Z,937.48
2022-08-25T02:00:19.138Z,937.43
2022-08-25T02:01:19.204Z,937.47
2022-08-25T02:02:19.147Z,937.47
2022-08-25T02:03:19.263Z,937.49
2022-08-25T02:04:19.137Z,937.51
2022-08-25T02:05:22.892Z,937.50
2022-08-25T02:06:19.062Z,937.52
2022-08-25T02:07:19.050Z,937.51
2022-08-25T02:08:19.074Z,937.51
2022-08-25T02:09:18.986Z,937.47
2022-08-25T02:10:19.013Z,937.48
2022-08-25T02:11:19.008Z,937.47
2022-08-25T02:12:18.989Z,937.45
2022-08-25T02:13:18.967Z,937.47
2022-08-25T02:14:18.966Z,937.47
2022-08-25T02:15:18.965Z,937.51
2022-08-25T02:16:18.957Z,937.51
2022-08-25T02:17:18.924Z,937.49
2022-08-25T02:18:18.904Z,937.51
2022-08-25T02:19:18.932Z,937.56
2022-08-25T02:20:18.937Z,937.51
2022-08-25T02:21:18.837Z,937.53
2022-08-25T02:22:18.840Z,937.49
2022-08-25T02:23:18.874Z,937.44
2022-08-25T02:24:18.886Z,937.45
2022-08-25T02:25:18.780Z,937.44
2022-08-25T02:26:18.833Z,937.39
2022-08-25T02:27:18.798Z,937.41
2022-08-25T07:37:57.898Z,935.54
2022-08-25T07:38:58.581Z,935.59
2022-08-25T07:59:54.514Z,935.66
2022-08-25T08:00:55.475Z,935.60
2022-08-25T08:01:55.565Z,935.60
2022-08-25T08:02:55.630Z,935.63
2022-08-25T08:03:56.841Z,935.68
2022-08-25T08:04:55.485Z,935.66
2022-08-25T08:05:55.439Z,935.66
2022-08-25T08:06:55.403Z,935.67
2022-08-25T08:07:55.466Z,935.69
2022-08-25T08:08:58.941Z,935.71
2022-08-25T08:10:13.619Z,935.72
2022-08-25T08:11:10.682Z,935.72
2022-08-25T08:11:55.385Z,935.69
2022-08-25T08:12:55.434Z,935.73
2022-08-25T08:13:55.400Z,935.76
2022-08-25T08:14:56.155Z,935.81
2022-08-25T08:15:55.353Z,935.77
2022-08-25T08:16:55.299Z,935.82
2022-08-25T08:17:55.317Z,935.75
2022-08-25T08:18:55.402Z,935.71
2022-08-25T08:19:55.294Z,935.78
2022-08-25T08:20:55.578Z,935.75
2022-08-25T08:21:55.301Z,935.71
2022-08-25T08:22:55.259Z,935.76
2022-08-25T08:23:58.750Z,935.81
2022-08-25T08:24:56.388Z,935.79
2022-08-25T08:25:55.267Z,935.86
2022-08-25T08:26:58.982Z,935.91
2022-08-25T08:27:55.993Z,935.95
2022-08-25T08:28:55.203Z,935.93
2022-08-25T08:29:55.147Z,935.89
2022-08-25T08:30:55.203Z,935.90
2022-08-25T08:31:55.222Z,935.91
2022-08-25T08:33:11.878Z,935.91
2022-08-25T08:33:55.119Z,935.90
2022-08-25T08:34:55.154Z,935.93
2022-08-25T08:35:55.146Z,935.94
2022-08-25T08:36:55.106Z,935.95
2022-08-25T08:37:55.056Z,935.96
2022-08-25T08:38:55.094Z,936.01
2022-08-25T08:39:55.096Z,936.00
2022-08-25T08:40:55.074Z,936.02
2022-08-25T08:42:11.166Z,936.07
2022-08-25T08:42:55.039Z,936.10
2022-08-25T08:43:55.076Z,936.09
2022-08-25T08:44:57.017Z,936.15
2022-08-25T08:45:55.032Z,936.14
2022-08-25T08:46:56.661Z,936.15
2022-08-25T08:47:55.014Z,936.13
2022-08-25T08:48:54.970Z,936.13
2022-08-25T08:49:54.982Z,936.14
2022-08-25T08:50:54.983Z,936.15
2022-08-25T08:51:54.941Z,936.11
2022-08-25T08:52:54.946Z,936.10
2022-08-25T08:53:54.956Z,936.18
2022-08-25T08:54:54.901Z,936.17
2022-08-25T08:55:54.882Z,936.18
2022-08-25T08:56:54.851Z,936.20
2022-08-25T08:57:54.880Z,936.21
2022-08-25T08:58:54.847Z,936.19
2022-08-25T08:59:54.853Z,936.19
2022-08-25T09:00:54.829Z,936.19
2022-08-25T09:01:54.834Z,936.19
2022-08-25T09:02:54.871Z,936.19
2022-08-25T09:03:55.530Z,936.16
2022-08-25T09:04:54.810Z,936.18
2022-08-25T09:05:54.788Z,936.20
2022-08-25T09:06:54.761Z,936.22
2022-08-25T09:07:56.095Z,936.25
2022-08-25T09:08:54.779Z,936.28
2022-08-25T09:09:54.722Z,936.31
2022-08-25T09:10:54.781Z,936.33
2022-08-25T09:11:54.700Z,936.32
2022-08-25T09:13:54.658Z,936.29
2022-08-25T09:14:54.710Z,936.31
2022-08-25T09:15:54.908Z,936.35
2022-08-25T09:16:54.611Z,936.33
2022-08-25T09:17:55.077Z,936.35
2022-08-25T09:18:54.611Z,936.35
2022-08-25T09:19:54.576Z,936.37
2022-08-25T09:20:54.678Z,936.40
2022-08-25T09:21:54.613Z,936.41
2022-08-25T09:22:54.532Z,936.44
2022-08-25T09:23:54.566Z,936.39
2022-08-25T09:24:54.574Z,936.39
2022-08-25T09:25:54.594Z,936.43
2022-08-25T09:26:54.610Z,936.40
2022-08-25T09:27:54.531Z,936.40
2022-08-25T09:28:54.499Z,936.43
2022-08-25T09:29:54.486Z,936.41
2022-08-25T09:30:54.536Z,936.45
2022-08-25T09:31:54.544Z,936.43
2022-08-25T09:32:54.474Z,936.52
2022-08-25T09:33:54.422Z,936.53
2022-08-25T09:34:54.436Z,936.52
2022-08-25T09:35:54.437Z,936.50
2022-08-25T09:36:54.447Z,936.52
2022-08-25T09:37:54.429Z,936.56
2022-08-25T09:38:54.408Z,936.60
2022-08-25T09:39:54.406Z,936.62
2022-08-25T09:40:54.396Z,936.56
2022-08-25T09:41:54.383Z,936.58
2022-08-25T09:42:58.090Z,936.58
2022-08-25T09:43:54.306Z,936.59
2022-08-25T09:44:54.314Z,936.63
2022-08-25T09:45:54.373Z,936.65
2022-08-25T09:46:54.330Z,936.62
2022-08-25T09:47:54.305Z,936.65
2022-08-25T09:48:56.430Z,936.62
2022-08-25T09:49:54.285Z,936.66
2022-08-25T09:50:54.296Z,936.67
2022-08-25T09:51:54.253Z,936.61
2022-08-25T09:52:54.267Z,936.59
2022-08-25T09:53:54.196Z,936.60
2022-08-25T09:54:54.218Z,936.59
2022-08-25T09:55:57.818Z,936.67
2022-08-25T09:56:54.213Z,936.67
2022-08-25T09:57:54.181Z,936.71
2022-08-25T09:58:54.185Z,936.71
2022-08-25T09:59:57.556Z,936.72
2022-08-25T10:00:54.118Z,936.74
2022-08-25T10:01:54.183Z,936.74
2022-08-25T10:02:54.174Z,936.70
2022-08-25T10:03:54.153Z,936.70
2022-08-25T10:04:54.138Z,936.80
2022-08-25T10:05:56.149Z,936.76
2022-08-25T10:06:54.088Z,936.83
2022-08-25T10:07:54.076Z,936.83
2022-08-25T10:08:54.102Z,936.85
2022-08-25T10:09:54.096Z,936.88
2022-08-25T10:10:54.032Z,936.87
2022-08-25T10:11:57.633Z,936.83
2022-08-25T10:12:53.980Z,936.83
2022-08-25T10:13:54.018Z,936.85
2022-08-25T10:14:54.509Z,936.87
2022-08-25T10:15:54.015Z,936.90
2022-08-25T10:16:53.997Z,936.91
2022-08-25T10:17:53.951Z,936.89
2022-08-25T10:18:53.945Z,936.91
2022-08-25T10:19:53.991Z,936.91
2022-08-25T10:20:53.976Z,936.98
2022-08-25T10:21:53.931Z,936.95
2022-08-25T10:22:53.906Z,936.97
2022-08-25T10:23:53.882Z,936.89
2022-08-25T10:24:53.866Z,936.97
2022-08-25T10:25:59.228Z,936.96
2022-08-25T10:26:53.896Z,937.00
2022-08-25T10:27:53.811Z,937.04
2022-08-25T10:28:53.812Z,937.04
2022-08-25T10:29:53.840Z,937.02
2022-08-25T10:30:53.818Z,937.04
2022-08-25T10:31:53.840Z,937.00
2022-08-25T10:32:53.823Z,937.02
2022-08-25T10:33:53.773Z,937.05
2022-08-25T10:34:53.779Z,937.03
2022-08-25T10:35:53.769Z,937.07
2022-08-25T10:36:53.788Z,937.05
2022-08-25T10:37:53.737Z,937.04
2022-08-25T10:38:53.737Z,937.04
2022-08-25T10:39:55.326Z,937.04
2022-08-25T10:40:53.730Z,937.07
2022-08-25T10:41:53.695Z,937.18
2022-08-25T10:42:53.653Z,937.10
2022-08-25T10:43:53.669Z,937.12
2022-08-25T10:44:53.675Z,937.15
2022-08-25T10:45:53.697Z,937.10
2022-08-25T10:46:53.635Z,937.14
2022-08-25T10:47:53.652Z,937.15
2022-08-25T11:03:07.950Z,937.33
2022-08-25T11:03:46.749Z,937.36
2022-08-25T11:06:41.426Z,937.40
2022-08-25T11:07:31.543Z,937.42
2022-08-25T11:08:34.965Z,937.43
2022-08-25T11:09:31.489Z,937.46
2022-08-25T11:10:31.506Z,937.48
2022-08-25T11:11:31.469Z,937.50
2022-08-25T11:12:32.389Z,937.54
2022-08-25T11:41:23.222Z,937.82
2022-08-25T11:42:24.179Z,937.82
2022-08-25T11:43:24.489Z,937.81
2022-08-25T11:44:24.187Z,937.80
2022-08-25T14:15:43.511Z,937.02
2022-08-25T14:16:44.493Z,937.00
2022-08-25T14:17:44.306Z,936.96
2022-08-25T14:18:44.356Z,936.91
2022-08-25T14:19:44.304Z,936.89
2022-08-25T14:20:44.309Z,936.86
2022-08-25T14:21:44.307Z,936.81
2022-08-25T14:22:44.339Z,936.84
2022-08-25T14:23:44.305Z,936.78
2022-08-25T14:24:44.279Z,936.73
2022-08-25T14:25:44.314Z,936.75
2022-08-25T14:26:54.278Z,936.76
2022-08-25T14:28:03.528Z,936.73
2022-08-25T14:28:44.215Z,936.72
2022-08-25T14:29:44.245Z,936.71
2022-08-25T14:30:46.142Z,936.68
2022-08-25T14:31:44.210Z,936.69
2022-08-25T14:32:44.176Z,936.70
2022-08-25T14:33:44.158Z,936.68
2022-08-25T14:34:44.188Z,936.69
2022-08-25T14:35:44.142Z,936.64
2022-08-25T14:36:44.841Z,936.62
2022-08-25T14:37:44.159Z,936.62
2022-08-25T14:38:44.268Z,936.64
2022-08-25T14:39:44.194Z,936.61
2022-08-25T14:40:44.171Z,936.66
2022-08-25T14:41:46.361Z,936.64
2022-08-25T14:42:44.071Z,936.61
2022-08-25T14:43:44.067Z,936.65
2022-08-25T14:44:44.037Z,936.68
2022-08-25T14:45:44.071Z,936.61
2022-08-25T14:46:43.997Z,936.59
2022-08-25T14:47:44.017Z,936.52
2022-08-25T14:48:44.005Z,936.56
2022-08-25T14:49:43.987Z,936.57
2022-08-25T14:50:43.975Z,936.54
2022-08-25T14:51:43.934Z,936.52
2022-08-25T14:52:43.918Z,936.51
2022-08-25T14:53:43.923Z,936.47
2022-08-25T14:54:43.913Z,936.42
2022-08-25T14:55:43.914Z,936.34
2022-08-25T14:56:43.931Z,936.34
2022-08-25T14:57:43.888Z,936.38
2022-08-25T14:58:47.311Z,936.33
2022-08-25T14:59:43.845Z,936.34
2022-08-25T15:00:43.872Z,936.32
2022-08-25T15:01:43.873Z,936.30
2022-08-25T15:02:43.859Z,936.35
2022-08-25T15:03:43.901Z,936.32
2022-08-25T15:04:49.181Z,936.32
2022-08-25T15:05:43.802Z,936.28
2022-08-25T15:06:43.846Z,936.31
2022-08-25T15:07:43.794Z,936.31
2022-08-25T15:08:43.809Z,936.29
2022-08-25T15:09:43.781Z,936.28
2022-08-25T15:10:43.753Z,936.25
2022-08-25T15:11:43.704Z,936.21
2022-08-25T15:12:47.694Z,936.23
2022-08-25T15:13:47.709Z,936.23
2022-08-25T15:14:43.736Z,936.22
2022-08-25T15:15:52.728Z,936.24
2022-08-25T15:16:43.723Z,936.21
2022-08-25T15:17:49.473Z,936.19
2022-08-25T15:18:46.463Z,936.21
2022-08-25T15:19:43.716Z,936.16
2022-08-25T15:20:43.808Z,936.16
2022-08-25T15:21:44.236Z,936.15
2022-08-25T15:22:45.468Z,936.12
2022-08-25T15:23:44.590Z,936.11
2022-08-25T15:24:45.756Z,936.11
2022-08-25T15:25:43.573Z,936.08
2022-08-25T15:26:43.641Z,936.07
2022-08-25T15:27:43.582Z,936.07
2022-08-25T15:28:44.250Z,936.06
2022-08-25T15:29:43.528Z,936.07
2022-08-25T15:30:45.150Z,936.07
2022-08-25T15:31:43.648Z,936.06
2022-08-25T15:32:43.531Z,936.00
2022-08-25T15:33:43.542Z,936.06
2022-08-25T15:34:42.503Z,936.04
2022-08-25T15:35:43.567Z,936.03
2022-08-25T15:36:43.453Z,936.04
2022-08-25T15:37:44.475Z,936.00
2022-08-25T15:38:43.656Z,935.96
2022-08-25T15:39:43.448Z,935.92
2022-08-25T15:40:43.445Z,935.91
2022-08-25T15:41:44.036Z,935.93
2022-08-25T15:42:45.959Z,935.92
2022-08-25T15:43:43.374Z,935.91
2022-08-25T15:44:43.465Z,935.89
2022-08-25T15:45:43.431Z,935.83
2022-08-25T15:46:46.926Z,935.81
2022-08-25T15:47:43.411Z,935.76
2022-08-25T15:48:43.399Z,935.75
2022-08-25T15:49:43.284Z,935.72
2022-08-25T15:50:45.233Z,935.73
2022-08-25T15:51:45.700Z,935.75
2022-08-25T15:53:41.514Z,935.75
2022-08-25T15:54:42.517Z,935.72
2022-08-25T15:55:42.531Z,935.68
2022-08-25T15:56:42.514Z,935.69
2022-08-25T15:57:42.467Z,935.73
2022-08-25T15:58:45.976Z,935.65
2022-08-25T15:59:43.176Z,935.64
2022-08-25T16:00:43.072Z,935.65
2022-08-25T16:01:42.534Z,935.63
2022-08-25T16:02:42.454Z,935.64
2022-08-25T16:03:42.392Z,935.60
2022-08-25T16:04:42.354Z,935.62
2022-08-25T16:05:48.095Z,935.58
2022-08-25T16:06:42.339Z,935.57
2022-08-25T16:07:42.349Z,935.53
2022-08-25T16:08:42.604Z,935.54
2022-08-25T16:09:42.963Z,935.52
2022-08-25T16:10:42.330Z,935.47
2022-08-25T16:11:42.320Z,935.45
2022-08-25T16:12:42.595Z,935.41
2022-08-25T16:13:42.266Z,935.44
2022-08-25T16:14:42.318Z,935.39
2022-08-25T16:15:42.218Z,935.42
2022-08-25T16:16:42.358Z,935.41
2022-08-25T16:17:43.664Z,935.42
2022-08-25T16:18:42.180Z,935.41
2022-08-25T16:19:42.205Z,935.37
2022-08-25T16:20:42.233Z,935.38
2022-08-25T16:21:47.166Z,935.36
2022-08-25T16:22:42.168Z,935.35
2022-08-25T16:23:42.139Z,935.32
2022-08-25T16:24:42.187Z,935.32
2022-08-25T16:25:42.145Z,935.33
2022-08-25T16:26:48.054Z,935.27
2022-08-25T16:27:42.146Z,935.27
2022-08-25T16:28:43.916Z,935.25
2022-08-25T16:29:42.097Z,935.25
2022-08-25T16:30:42.066Z,935.23
2022-08-25T16:31:42.183Z,935.21
2022-08-25T16:32:42.056Z,935.24
2022-08-25T16:34:41.989Z,935.16
2022-08-25T16:35:42.067Z,935.17
2022-08-25T16:36:42.004Z,935.09
2022-08-25T16:37:42.748Z,935.12
2022-08-25T16:38:41.998Z,935.16
2022-08-25T16:39:42.012Z,935.06
2022-08-25T16:40:41.980Z,935.07
2022-08-25T16:41:41.953Z,935.08
2022-08-25T16:42:41.970Z,935.13
2022-08-25T16:43:41.927Z,935.04
2022-08-25T16:44:41.986Z,935.00
2022-08-25T16:45:41.874Z,935.03
2022-08-25T16:46:41.954Z,935.03
2022-08-25T16:47:42.809Z,935.03
2022-08-25T16:48:41.894Z,934.99
2022-08-25T16:49:41.881Z,935.02
2022-08-25T16:50:41.860Z,934.98
2022-08-25T16:51:41.827Z,935.00
2022-08-25T16:52:44.234Z,934.92
2022-08-25T16:53:41.787Z,934.96
2022-08-25T16:54:41.812Z,934.96
2022-08-25T16:55:41.831Z,934.94
2022-08-25T16:56:41.837Z,934.90
2022-08-25T16:57:41.772Z,934.83
2022-08-25T16:58:41.740Z,934.85
2022-08-25T16:59:41.775Z,934.83
2022-08-25T17:00:41.808Z,934.81
2022-08-25T17:01:42.015Z,934.79
2022-08-25T17:02:41.767Z,934.78
2022-08-25T17:03:43.801Z,934.75
2022-08-25T17:04:41.663Z,934.79
2022-08-25T17:05:41.663Z,934.75
2022-08-25T17:06:41.642Z,934.77
2022-08-25T17:07:41.680Z,934.73
2022-08-25T17:08:41.667Z,934.72
2022-08-25T17:09:41.644Z,934.76
2022-08-25T17:10:41.634Z,934.71
2022-08-25T17:11:42.361Z,934.70
2022-08-25T17:12:41.563Z,934.68
2022-08-25T17:13:44.399Z,934.69
2022-08-25T17:14:41.609Z,934.66
2022-08-25T17:15:41.629Z,934.67
2022-08-25T17:16:41.593Z,934.61
2022-08-25T17:17:41.560Z,934.59
2022-08-25T17:18:41.506Z,934.57
2022-08-25T17:19:45.458Z,934.54
2022-08-25T17:20:41.545Z,934.54
2022-08-25T17:21:45.147Z,934.54
2022-08-25T17:22:41.522Z,934.43
2022-08-25T17:23:41.444Z,934.45
2022-08-25T17:24:41.469Z,934.44
2022-08-25T17:25:43.164Z,934.40
2022-08-25T17:26:41.505Z,934.40
2022-08-25T17:27:41.432Z,934.38
2022-08-25T17:28:41.443Z,934.36
2022-08-25T17:29:41.474Z,934.37
2022-08-25T17:30:41.374Z,934.36
2022-08-25T17:31:41.375Z,934.35
2022-08-25T17:32:41.641Z,934.30
2022-08-25T17:33:41.387Z,934.25
2022-08-25T17:34:41.332Z,934.24
2022-08-25T17:35:41.334Z,934.22
2022-08-25T17:36:41.303Z,934.21
2022-08-25T17:37:41.373Z,934.26
2022-08-25T17:38:41.353Z,934.22
2022-08-25T17:39:41.313Z,934.26
2022-08-25T17:40:41.461Z,934.28
2022-08-25T17:41:41.252Z,934.22
2022-08-25T17:42:41.283Z,934.21
2022-08-25T17:43:41.262Z,934.23
2022-08-25T17:44:41.259Z,934.23
2022-08-25T17:45:41.212Z,934.25
2022-08-25T17:46:47.213Z,934.23
2022-08-25T17:47:41.228Z,934.24
2022-08-25T17:48:43.825Z,934.20
2022-08-25T17:49:41.176Z,934.19
2022-08-25T17:50:41.227Z,934.19
2022-08-25T17:51:41.158Z,934.19
2022-08-25T17:52:41.178Z,934.20
2022-08-25T17:53:41.199Z,934.23
2022-08-25T17:54:41.088Z,934.25
2022-08-25T17:55:42.328Z,934.29
2022-08-25T17:56:41.159Z,934.31
2022-08-25T17:57:41.079Z,934.29
2022-08-25T17:58:41.100Z,934.27
2022-08-25T17:59:41.778Z,934.27
2022-08-25T18:00:43.948Z,934.28
2022-08-25T18:01:41.203Z,934.30
2022-08-25T18:02:41.040Z,934.31
2022-08-25T18:03:41.051Z,934.29
2022-08-25T18:04:40.975Z,934.32
2022-08-25T18:05:41.011Z,934.31
2022-08-25T18:06:40.973Z,934.25
2022-08-25T18:07:41.020Z,934.25
2022-08-25T18:08:40.982Z,934.29
2022-08-25T18:09:40.962Z,934.30
2022-08-25T18:10:40.928Z,934.32
2022-08-25T18:11:40.935Z,934.30
2022-08-25T18:12:40.900Z,934.31
2022-08-25T18:13:40.911Z,934.32
2022-08-25T18:14:40.939Z,934.33
2022-08-25T18:15:42.400Z,934.31
2022-08-25T18:16:40.888Z,934.32
2022-08-25T18:17:40.909Z,934.32
2022-08-25T18:18:40.863Z,934.29
2022-08-25T18:19:40.882Z,934.29
2022-08-25T18:20:40.880Z,934.33
2022-08-25T18:21:41.660Z,934.37
2022-08-25T18:22:40.818Z,934.35
2022-08-25T18:23:40.817Z,934.39
2022-08-25T18:24:40.794Z,934.37
2022-08-25T18:25:41.927Z,934.36
2022-08-25T18:26:40.745Z,934.38
2022-08-25T18:27:40.790Z,934.39
2022-08-25T18:28:40.742Z,934.35
2022-08-25T18:29:40.685Z,934.32
2022-08-25T18:30:40.685Z,934.34
2022-08-25T18:31:40.870Z,934.33
2022-08-25T18:32:40.743Z,934.39
2022-08-25T18:33:40.710Z,934.39
2022-08-25T18:34:40.701Z,934.35
2022-08-25T18:35:40.654Z,934.40
2022-08-25T18:36:40.695Z,934.35
2022-08-25T18:37:40.639Z,934.36
2022-08-25T18:38:40.904Z,934.34
2022-08-25T18:39:40.642Z,934.34
2022-08-25T18:40:40.581Z,934.35
2022-08-25T18:41:40.609Z,934.33
2022-08-25T18:42:40.621Z,934.34
2022-08-25T18:43:40.571Z,934.35
2022-08-25T18:44:43.727Z,934.31
2022-08-25T18:45:40.558Z,934.38
2022-08-25T18:46:40.562Z,934.35
2022-08-25T18:47:40.526Z,934.40
2022-08-25T18:48:40.520Z,934.43
2022-08-25T18:49:40.505Z,934.36
2022-08-25T18:50:40.498Z,934.41
2022-08-25T18:51:40.472Z,934.43
2022-08-25T18:52:40.512Z,934.43
2022-08-25T18:53:49.720Z,934.41
2022-08-25T18:54:40.454Z,934.42
2022-08-25T18:55:40.450Z,934.42
2022-08-25T18:56:40.450Z,934.44
2022-08-25T18:57:55.086Z,934.42
2022-08-25T18:58:40.428Z,934.43
2022-08-25T18:59:55.061Z,934.44
2022-08-25T19:00:40.373Z,934.41
2022-08-25T19:01:40.428Z,934.45
2022-08-25T19:02:40.536Z,934.44
2022-08-25T19:03:40.338Z,934.48
2022-08-25T19:04:40.367Z,934.54
2022-08-25T19:05:40.338Z,934.53
2022-08-25T19:06:40.291Z,934.52
2022-08-25T19:07:40.414Z,934.51
2022-08-25T19:08:41.906Z,934.53
2022-08-25T19:09:40.309Z,934.54
2022-08-25T19:10:40.310Z,934.55
2022-08-25T19:11:40.250Z,934.59
2022-08-25T19:12:40.285Z,934.68
2022-08-25T19:13:40.253Z,934.66
2022-08-25T19:14:40.221Z,934.64
2022-08-25T19:15:40.258Z,934.66
2022-08-25T19:16:40.184Z,934.67
2022-08-25T19:17:40.203Z,934.76
2022-08-25T19:18:40.175Z,934.78
2022-08-25T19:19:40.154Z,934.76
2022-08-25T19:20:40.204Z,934.77
2022-08-25T19:21:40.155Z,934.79
2022-08-25T19:22:42.001Z,934.81
2022-08-25T19:23:40.128Z,934.81
2022-08-25T19:24:40.115Z,934.84
2022-08-25T19:25:41.715Z,934.85
2022-08-25T19:26:40.099Z,934.88
2022-08-25T19:27:40.090Z,934.84
2022-08-25T19:28:40.064Z,934.84
2022-08-25T19:29:40.036Z,934.87
2022-08-25T19:30:49.925Z,934.87
2022-08-25T19:31:40.044Z,934.84
2022-08-25T19:32:40.015Z,934.88
2022-08-25T19:33:43.941Z,934.90
2022-08-25T19:34:40.010Z,934.88
2022-08-25T19:35:39.979Z,934.90
2022-08-25T19:36:39.973Z,934.93
2022-08-25T19:37:39.957Z,934.93
2022-08-25T19:38:40.016Z,934.94
2022-08-25T19:39:39.917Z,934.97
2022-08-25T19:40:39.985Z,935.04
2022-08-25T19:41:39.920Z,935.04
2022-08-25T19:42:39.885Z,935.09
2022-08-25T19:43:39.861Z,935.13
2022-08-25T19:44:40.179Z,935.12
2022-08-25T19:45:39.857Z,935.11
2022-08-25T19:46:39.981Z,935.13
2022-08-25T19:47:39.806Z,935.13
2022-08-25T19:48:39.872Z,935.11
2022-08-25T19:49:39.804Z,935.14
2022-08-25T19:50:39.837Z,935.22
2022-08-25T19:51:39.838Z,935.22
2022-08-25T19:52:39.786Z,935.25
2022-08-25T19:53:39.795Z,935.26
2022-08-25T19:54:39.748Z,935.29
2022-08-25T19:55:39.735Z,935.26
2022-08-25T19:56:53.695Z,935.30
2022-08-25T19:57:42.929Z,935.29
2022-08-25T19:58:39.721Z,935.32
2022-08-25T19:59:43.140Z,935.32
2022-08-25T20:00:39.688Z,935.30
2022-08-25T20:01:40.372Z,935.33
2022-08-25T20:02:39.767Z,935.33
2022-08-25T20:03:39.697Z,935.31
2022-08-25T20:04:39.651Z,935.34
2022-08-25T20:05:39.656Z,935.32
2022-08-25T20:06:39.630Z,935.32
2022-08-25T20:07:39.579Z,935.37
2022-08-25T20:08:39.647Z,935.32
2022-08-25T20:09:40.952Z,935.39
2022-08-25T20:10:42.089Z,935.40
2022-08-25T20:11:39.552Z,935.42
2022-08-25T20:12:39.561Z,935.43
2022-08-25T20:13:39.512Z,935.44
2022-08-25T20:14:40.048Z,935.42
2022-08-25T20:15:39.631Z,935.44
2022-08-25T20:16:39.503Z,935.44
2022-08-25T20:17:41.717Z,935.39
2022-08-25T20:18:39.505Z,935.43
2022-08-25T20:19:39.436Z,935.45
2022-08-25T20:20:39.494Z,935.47
2022-08-25T20:21:40.093Z,935.49
2022-08-25T20:22:39.514Z,935.51
2022-08-25T20:23:39.419Z,935.46
2022-08-25T20:24:39.436Z,935.55
2022-08-25T20:25:39.387Z,935.58
2022-08-25T20:26:39.413Z,935.60
2022-08-25T20:27:39.434Z,935.59
2022-08-25T20:28:39.430Z,935.60
2022-08-25T20:29:40.157Z,935.62
2022-08-25T20:30:39.416Z,935.63
2022-08-25T20:31:39.306Z,935.59
2022-08-25T20:32:39.415Z,935.63
2022-08-25T20:33:39.304Z,935.63
2022-08-25T20:34:39.351Z,935.68
2022-08-25T20:35:39.330Z,935.64
2022-08-25T20:36:41.595Z,935.57
2022-08-25T20:37:39.298Z,935.58
2022-08-25T20:38:39.304Z,935.62
2022-08-25T20:39:39.290Z,935.61
2022-08-25T20:40:39.239Z,935.63
2022-08-25T20:41:39.222Z,935.60
2022-08-25T20:42:39.250Z,935.62
2022-08-25T20:43:39.157Z,935.60
2022-08-25T20:44:42.087Z,935.62
2022-08-25T20:45:39.258Z,935.61
2022-08-25T20:46:39.144Z,935.65
2022-08-25T20:47:39.126Z,935.65
2022-08-25T20:48:39.162Z,935.72
2022-08-25T20:49:39.131Z,935.66
2022-08-25T20:50:39.327Z,935.66
2022-08-25T20:51:39.112Z,935.68
2022-08-25T20:52:39.256Z,935.68
2022-08-25T20:53:39.061Z,935.69
2022-08-25T20:54:39.076Z,935.69
2022-08-25T20:55:42.377Z,935.69
2022-08-25T20:56:39.074Z,935.64
2022-08-25T20:57:39.054Z,935.71
2022-08-25T20:58:39.064Z,935.71
2022-08-25T20:59:39.020Z,935.67
2022-08-25T21:00:38.974Z,935.70
2022-08-25T21:01:39.819Z,935.70
2022-08-25T21:02:39.135Z,935.71
2022-08-25T21:03:38.979Z,935.72
2022-08-25T21:04:39.268Z,935.74
2022-08-25T21:05:38.997Z,935.76
2022-08-25T21:06:38.907Z,935.79
2022-08-25T21:07:38.894Z,935.75
2022-08-25T21:08:38.942Z,935.80
2022-08-25T21:09:40.074Z,935.79
2022-08-25T21:10:38.884Z,935.78
2022-08-25T21:11:38.885Z,935.78
2022-08-25T21:12:38.869Z,935.80
2022-08-25T21:13:38.832Z,935.81
2022-08-25T21:14:38.818Z,935.84
2022-08-25T21:15:38.814Z,935.79
2022-08-25T21:16:38.866Z,935.81
2022-08-25T21:17:38.825Z,935.82
2022-08-25T21:18:38.801Z,935.84
2022-08-25T21:19:38.820Z,935.87
2022-08-25T21:20:38.826Z,935.85
2022-08-25T21:21:38.738Z,935.87
2022-08-25T21:22:38.773Z,935.84
2022-08-25T21:23:39.592Z,935.86
2022-08-25T21:24:38.728Z,935.89
2022-08-25T21:25:38.729Z,935.88
2022-08-25T21:26:48.989Z,935.91
2022-08-25T21:27:38.705Z,935.91
2022-08-25T21:28:38.691Z,935.94
2022-08-25T21:29:38.703Z,935.91
2022-08-25T21:30:38.683Z,935.93
2022-08-25T21:31:38.614Z,935.93
2022-08-25T21:32:38.649Z,935.95
2022-08-25T21:33:38.602Z,935.96
2022-08-25T21:34:38.566Z,935.94
2022-08-25T21:35:38.619Z,935.98
2022-08-25T21:36:38.585Z,935.98
2022-08-25T21:37:39.354Z,936.00
2022-08-25T21:38:39.901Z,935.99
2022-08-25T21:39:38.541Z,936.03
2022-08-25T21:40:38.552Z,936.03
2022-08-25T21:41:38.589Z,936.01
2022-08-25T21:42:38.518Z,936.01
2022-08-25T21:43:38.500Z,936.04
2022-08-25T21:44:38.509Z,936.04
2022-08-25T21:45:40.410Z,936.06
2022-08-25T21:46:38.508Z,936.05
2022-08-25T21:47:38.429Z,936.06
2022-08-25T21:48:38.464Z,936.08
2022-08-25T21:49:38.438Z,936.08
2022-08-25T21:50:38.479Z,936.06
2022-08-25T21:51:40.744Z,936.08
2022-08-25T21:52:38.378Z,936.08
2022-08-25T21:53:38.379Z,936.12
2022-08-25T21:54:38.415Z,936.09
2022-08-25T21:55:38.361Z,936.13
2022-08-25T21:56:38.582Z,936.16
2022-08-25T21:57:38.331Z,936.12
2022-08-25T21:58:38.361Z,936.13
2022-08-25T21:59:38.383Z,936.09
2022-08-25T22:00:38.304Z,936.14
2022-08-25T22:01:38.321Z,936.18
2022-08-25T22:02:38.345Z,936.16
2022-08-25T22:03:38.277Z,936.17
2022-08-25T22:04:38.270Z,936.23
2022-08-25T22:05:38.310Z,936.20
2022-08-25T22:06:38.244Z,936.27
2022-08-25T22:07:40.453Z,936.27
2022-08-25T22:08:38.259Z,936.27